sensor_id;sensor_type;location;lat;lon;timestamp;temperature;humidity
40952;DHT22;26682;51.660;19.338;2022-09-01T00:01:29;14.50;99.90
40952;DHT22;26682;51.660;19.338;2022-09-01T00:03:20;14.50;99.90
40952;DHT22;26682;51.660;19.338;2022-09-01T00:05:09;14.50;99.90
40952;DHT22;26682;51.660;19.338;2022-09-01T00:06:55;14.50;99.90
40952;DHT22;26682;51.660;19.338;2022-09-01T00:08:41;14.50;99.90
40952;DHT22;26682;51.660;19.338;2022-09-01T00:10:27;14.50;99.90
40952;DHT22;26682;51.660;19.338;2022-09-01T00:12:13;14.50;99.90
40952;DHT22;26682;51.660;19.338;2022-09-01T00:14:00;14.50;99.90
40952;DHT22;26682;51.660;19.338;2022-09-01T00:15:46;14.50;99.90
40952;DHT22;26682;51.660;19.338;2022-09-01T00:17:32;14.40;99.90
40952;DHT22;26682;51.660;19.338;2022-09-01T00:19:20;14.40;99.90
40952;DHT22;26682;51.660;19.338;2022-09-01T00:21:06;14.40;99.90
40952;DHT22;26682;51.660;19.338;2022-09-01T00:22:52;14.40;99.90
40952;DHT22;26682;51.660;19.338;2022-09-01T00:24:38;14.40;99.90
40952;DHT22;26682;51.660;19.338;2022-09-01T00:26:24;14.30;99.90
40952;DHT22;26682;51.660;19.338;2022-09-01T00:28:10;14.30;99.90
40952;DHT22;26682;51.660;19.338;2022-09-01T00:29:56;14.30;99.90
40952;DHT22;26682;51.660;19.338;2022-09-01T00:31:42;14.30;99.90
40952;DHT22;26682;51.660;19.338;2022-09-01T00:33:29;14.30;99.90
40952;DHT22;26682;51.660;19.338;2022-09-01T00:35:16;14.30;99.90
40952;DHT22;26682;51.660;19.338;2022-09-01T00:37:03;14.30;99.90
40952;DHT22;26682;51.660;19.338;2022-09-01T00:38:49;14.30;99.90
40952;DHT22;26682;51.660;19.338;2022-09-01T00:40:35;14.30;99.90
40952;DHT22;26682;51.660;19.338;2022-09-01T00:42:21;14.30;99.90
40952;DHT22;26682;51.660;19.338;2022-09-01T00:44:14;14.30;99.90
40952;DHT22;26682;51.660;19.338;2022-09-01T00:46:00;14.30;99.90
40952;DHT22;26682;51.660;19.338;2022-09-01T00:47:47;14.30;99.90
40952;DHT22;26682;51.660;19.338;2022-09-01T00:49:43;14.30;99.90
40952;DHT22;26682;51.660;19.338;2022-09-01T00:51:34;14.30;99.90
40952;DHT22;26682;51.660;19.338;2022-09-01T00:53:22;14.30;99.90
40952;DHT22;26682;51.660;19.338;2022-09-01T00:55:22;14.20;99.90
40952;DHT22;26682;51.660;19.338;2022-09-01T00:57:10;14.20;99.90
40952;DHT22;26682;51.660;19.338;2022-09-01T00:58:57;14.20;99.90
40952;DHT22;26682;51.660;19.338;2022-09-01T01:00:45;14.20;99.90
40952;DHT22;26682;51.660;19.338;2022-09-01T01:02:33;14.20;99.90
40952;DHT22;26682;51.660;19.338;2022-09-01T01:04:20;14.20;99.90
40952;DHT22;26682;51.660;19.338;2022-09-01T01:06:08;14.20;99.90
40952;DHT22;26682;51.660;19.338;2022-09-01T01:07:54;14.20;99.90
40952;DHT22;26682;51.660;19.338;2022-09-01T01:09:43;14.20;99.90
40952;DHT22;26682;51.660;19.338;2022-09-01T01:11:30;14.10;99.90
40952;DHT22;26682;51.660;19.338;2022-09-01T01:13:17;14.10;99.90
40952;DHT22;26682;51.660;19.338;2022-09-01T01:15:03;14.10;99.90
40952;DHT22;26682;51.660;19.338;2022-09-01T01:16:51;14.10;99.90
40952;DHT22;26682;51.660;19.338;2022-09-01T01:18:41;14.10;99.90
40952;DHT22;26682;51.660;19.338;2022-09-01T01:20:30;14.10;99.90
40952;DHT22;26682;51.660;19.338;2022-09-01T01:24:51;14.10;99.90
40952;DHT22;26682;51.660;19.338;2022-09-01T01:26:37;14.10;99.90
40952;DHT22;26682;51.660;19.338;2022-09-01T01:28:30;14.00;99.90
40952;DHT22;26682;51.660;19.338;2022-09-01T01:30:18;14.10;99.90
40952;DHT22;26682;51.660;19.338;2022-09-01T01:32:05;14.00;99.90
40952;DHT22;26682;51.660;19.338;2022-09-01T01:33:57;14.00;99.90
40952;DHT22;26682;51.660;19.338;2022-09-01T01:35:45;14.00;99.90
40952;DHT22;26682;51.660;19.338;2022-09-01T01:37:34;14.00;99.90
40952;DHT22;26682;51.660;19.338;2022-09-01T01:39:23;14.00;99.90
40952;DHT22;26682;51.660;19.338;2022-09-01T01:41:13;13.90;99.90
40952;DHT22;26682;51.660;19.338;2022-09-01T01:43:00;14.00;99.90
40952;DHT22;26682;51.660;19.338;2022-09-01T01:44:46;14.00;99.90
40952;DHT22;26682;51.660;19.338;2022-09-01T01:46:35;14.00;99.90
40952;DHT22;26682;51.660;19.338;2022-09-01T01:48:22;14.00;99.90
40952;DHT22;26682;51.660;19.338;2022-09-01T01:50:09;14.00;99.90
40952;DHT22;26682;51.660;19.338;2022-09-01T01:51:56;13.90;99.90
40952;DHT22;26682;51.660;19.338;2022-09-01T01:53:50;13.90;99.90
40952;DHT22;26682;51.660;19.338;2022-09-01T01:55:39;13.90;99.90
40952;DHT22;26682;51.660;19.338;2022-09-01T01:57:26;13.80;99.90
40952;DHT22;26682;51.660;19.338;2022-09-01T01:59:16;13.80;99.90
40952;DHT22;26682;51.660;19.338;2022-09-01T02:01:04;13.80;99.90
40952;DHT22;26682;51.660;19.338;2022-09-01T02:02:52;13.80;99.90
40952;DHT22;26682;51.660;19.338;2022-09-01T02:04:38;13.80;99.90
40952;DHT22;26682;51.660;19.338;2022-09-01T02:06:27;13.80;99.90
40952;DHT22;26682;51.660;19.338;2022-09-01T02:08:18;13.80;99.90
40952;DHT22;26682;51.660;19.338;2022-09-01T02:10:05;13.70;99.90
40952;DHT22;26682;51.660;19.338;2022-09-01T02:11:51;13.70;99.90
40952;DHT22;26682;51.660;19.338;2022-09-01T02:13:42;13.70;99.90
40952;DHT22;26682;51.660;19.338;2022-09-01T02:15:31;13.70;99.90
40952;DHT22;26682;51.660;19.338;2022-09-01T02:17:23;13.70;99.90
40952;DHT22;26682;51.660;19.338;2022-09-01T02:19:12;13.70;99.90
40952;DHT22;26682;51.660;19.338;2022-09-01T02:20:58;13.70;99.90
40952;DHT22;26682;51.660;19.338;2022-09-01T02:22:45;13.60;99.90
40952;DHT22;26682;51.660;19.338;2022-09-01T02:24:31;13.60;99.90
40952;DHT22;26682;51.660;19.338;2022-09-01T02:26:17;13.60;99.90
40952;DHT22;26682;51.660;19.338;2022-09-01T02:28:05;13.60;99.90
40952;DHT22;26682;51.660;19.338;2022-09-01T02:29:54;13.60;99.90
40952;DHT22;26682;51.660;19.338;2022-09-01T02:31:40;13.50;99.90
40952;DHT22;26682;51.660;19.338;2022-09-01T02:33:28;13.50;99.90
40952;DHT22;26682;51.660;19.338;2022-09-01T02:35:15;13.50;99.90
40952;DHT22;26682;51.660;19.338;2022-09-01T02:37:02;13.50;99.90
40952;DHT22;26682;51.660;19.338;2022-09-01T02:38:48;13.40;99.90
40952;DHT22;26682;51.660;19.338;2022-09-01T02:40:35;13.40;99.90
40952;DHT22;26682;51.660;19.338;2022-09-01T02:42:25;13.40;99.90
40952;DHT22;26682;51.660;19.338;2022-09-01T02:44:15;13.40;99.90
40952;DHT22;26682;51.660;19.338;2022-09-01T02:46:01;13.40;99.90
40952;DHT22;26682;51.660;19.338;2022-09-01T02:47:47;13.40;99.90
40952;DHT22;26682;51.660;19.338;2022-09-01T02:49:33;13.30;99.90
40952;DHT22;26682;51.660;19.338;2022-09-01T02:51:22;13.30;99.90
40952;DHT22;26682;51.660;19.338;2022-09-01T02:53:10;13.30;99.90
40952;DHT22;26682;51.660;19.338;2022-09-01T02:54:56;13.30;99.90
40952;DHT22;26682;51.660;19.338;2022-09-01T02:56:44;13.20;99.90
40952;DHT22;26682;51.660;19.338;2022-09-01T02:58:32;13.20;99.90
40952;DHT22;26682;51.660;19.338;2022-09-01T03:00:25;13.10;99.90
40952;DHT22;26682;51.660;19.338;2022-09-01T03:02:18;13.10;99.90
40952;DHT22;26682;51.660;19.338;2022-09-01T03:04:05;13.00;99.90
40952;DHT22;26682;51.660;19.338;2022-09-01T03:05:53;13.00;99.90
40952;DHT22;26682;51.660;19.338;2022-09-01T03:07:40;13.00;99.90
40952;DHT22;26682;51.660;19.338;2022-09-01T03:09:27;12.90;99.90
40952;DHT22;26682;51.660;19.338;2022-09-01T03:11:13;12.90;99.90
40952;DHT22;26682;51.660;19.338;2022-09-01T03:13:01;12.80;99.90
40952;DHT22;26682;51.660;19.338;2022-09-01T03:14:48;12.80;99.90
40952;DHT22;26682;51.660;19.338;2022-09-01T03:16:35;12.80;99.90
40952;DHT22;26682;51.660;19.338;2022-09-01T03:18:23;12.70;99.90
40952;DHT22;26682;51.660;19.338;2022-09-01T03:20:09;12.70;99.90
40952;DHT22;26682;51.660;19.338;2022-09-01T03:21:55;12.60;99.90
40952;DHT22;26682;51.660;19.338;2022-09-01T03:23:46;12.60;99.90
40952;DHT22;26682;51.660;19.338;2022-09-01T03:25:33;12.60;99.90
40952;DHT22;26682;51.660;19.338;2022-09-01T03:27:20;12.50;99.90
40952;DHT22;26682;51.660;19.338;2022-09-01T03:29:06;12.50;99.90
40952;DHT22;26682;51.660;19.338;2022-09-01T03:30:55;12.50;99.90
40952;DHT22;26682;51.660;19.338;2022-09-01T03:32:41;12.40;99.90
40952;DHT22;26682;51.660;19.338;2022-09-01T03:34:27;12.40;99.90
40952;DHT22;26682;51.660;19.338;2022-09-01T03:36:15;12.40;99.90
40952;DHT22;26682;51.660;19.338;2022-09-01T03:38:05;12.30;99.90
40952;DHT22;26682;51.660;19.338;2022-09-01T03:39:51;12.30;99.90
40952;DHT22;26682;51.660;19.338;2022-09-01T03:41:37;12.20;99.90
40952;DHT22;26682;51.660;19.338;2022-09-01T03:43:24;12.10;99.90
40952;DHT22;26682;51.660;19.338;2022-09-01T03:45:12;12.20;99.90
40952;DHT22;26682;51.660;19.338;2022-09-01T03:47:00;12.10;99.90
40952;DHT22;26682;51.660;19.338;2022-09-01T03:48:50;12.10;99.90
40952;DHT22;26682;51.660;19.338;2022-09-01T03:50:39;12.10;99.90
40952;DHT22;26682;51.660;19.338;2022-09-01T03:52:31;12.00;99.90
40952;DHT22;26682;51.660;19.338;2022-09-01T03:54:17;12.00;99.90
40952;DHT22;26682;51.660;19.338;2022-09-01T03:56:04;12.00;99.90
40952;DHT22;26682;51.660;19.338;2022-09-01T03:57:53;12.00;99.90
40952;DHT22;26682;51.660;19.338;2022-09-01T03:59:39;12.00;99.90
40952;DHT22;26682;51.660;19.338;2022-09-01T04:01:30;12.00;99.90
40952;DHT22;26682;51.660;19.338;2022-09-01T04:03:24;12.10;99.90
40952;DHT22;26682;51.660;19.338;2022-09-01T04:05:11;12.10;99.90
40952;DHT22;26682;51.660;19.338;2022-09-01T04:06:57;12.10;99.90
40952;DHT22;26682;51.660;19.338;2022-09-01T04:08:45;12.00;99.90
40952;DHT22;26682;51.660;19.338;2022-09-01T04:10:34;12.00;99.90
40952;DHT22;26682;51.660;19.338;2022-09-01T04:12:22;11.90;99.90
40952;DHT22;26682;51.660;19.338;2022-09-01T04:14:11;11.90;99.90
40952;DHT22;26682;51.660;19.338;2022-09-01T04:15:59;11.80;99.90
40952;DHT22;26682;51.660;19.338;2022-09-01T04:17:46;11.80;99.90
40952;DHT22;26682;51.660;19.338;2022-09-01T04:19:54;11.80;99.90
40952;DHT22;26682;51.660;19.338;2022-09-01T04:21:42;11.80;99.90
40952;DHT22;26682;51.660;19.338;2022-09-01T04:23:33;11.80;99.90
40952;DHT22;26682;51.660;19.338;2022-09-01T04:25:26;11.80;99.90
40952;DHT22;26682;51.660;19.338;2022-09-01T04:27:13;11.80;99.90
40952;DHT22;26682;51.660;19.338;2022-09-01T04:28:59;11.70;99.90
40952;DHT22;26682;51.660;19.338;2022-09-01T04:30:45;11.70;99.90
40952;DHT22;26682;51.660;19.338;2022-09-01T04:32:38;11.70;99.90
40952;DHT22;26682;51.660;19.338;2022-09-01T04:34:25;11.80;99.90
40952;DHT22;26682;51.660;19.338;2022-09-01T04:36:17;11.90;99.90
40952;DHT22;26682;51.660;19.338;2022-09-01T04:38:05;12.20;99.90
40952;DHT22;26682;51.660;19.338;2022-09-01T04:39:54;12.40;99.90
40952;DHT22;26682;51.660;19.338;2022-09-01T04:41:43;12.50;99.90
40952;DHT22;26682;51.660;19.338;2022-09-01T04:43:33;12.80;99.90
40952;DHT22;26682;51.660;19.338;2022-09-01T04:45:19;13.00;99.90
40952;DHT22;26682;51.660;19.338;2022-09-01T04:47:09;13.20;99.90
40952;DHT22;26682;51.660;19.338;2022-09-01T04:49:18;13.40;99.90
40952;DHT22;26682;51.660;19.338;2022-09-01T04:51:08;13.70;99.90
40952;DHT22;26682;51.660;19.338;2022-09-01T04:53:09;14.00;99.90
40952;DHT22;26682;51.660;19.338;2022-09-01T04:55:00;14.30;99.90
40952;DHT22;26682;51.660;19.338;2022-09-01T04:56:49;14.50;99.90
40952;DHT22;26682;51.660;19.338;2022-09-01T04:58:37;14.70;99.90
40952;DHT22;26682;51.660;19.338;2022-09-01T05:00:26;14.90;99.90
40952;DHT22;26682;51.660;19.338;2022-09-01T05:02:16;14.90;99.90
40952;DHT22;26682;51.660;19.338;2022-09-01T05:04:04;14.90;99.90
40952;DHT22;26682;51.660;19.338;2022-09-01T05:05:58;14.70;99.90
40952;DHT22;26682;51.660;19.338;2022-09-01T05:07:48;14.90;99.90
40952;DHT22;26682;51.660;19.338;2022-09-01T05:09:38;14.90;99.90
40952;DHT22;26682;51.660;19.338;2022-09-01T05:11:44;15.00;99.90
40952;DHT22;26682;51.660;19.338;2022-09-01T05:13:38;15.00;99.90
40952;DHT22;26682;51.660;19.338;2022-09-01T05:15:25;15.30;99.90
40952;DHT22;26682;51.660;19.338;2022-09-01T05:17:12;15.60;99.90
40952;DHT22;26682;51.660;19.338;2022-09-01T05:18:58;15.70;99.90
40952;DHT22;26682;51.660;19.338;2022-09-01T05:20:50;15.70;99.90
40952;DHT22;26682;51.660;19.338;2022-09-01T05:22:37;15.70;99.90
40952;DHT22;26682;51.660;19.338;2022-09-01T05:24:27;15.90;99.90
40952;DHT22;26682;51.660;19.338;2022-09-01T05:26:23;15.80;99.90
40952;DHT22;26682;51.660;19.338;2022-09-01T05:28:11;16.00;99.90
40952;DHT22;26682;51.660;19.338;2022-09-01T05:29:57;15.90;99.90
40952;DHT22;26682;51.660;19.338;2022-09-01T05:31:47;15.90;99.90
40952;DHT22;26682;51.660;19.338;2022-09-01T05:33:34;15.80;99.90
40952;DHT22;26682;51.660;19.338;2022-09-01T05:35:21;16.00;99.90
40952;DHT22;26682;51.660;19.338;2022-09-01T05:37:10;16.10;99.90
40952;DHT22;26682;51.660;19.338;2022-09-01T05:39:00;16.20;99.90
40952;DHT22;26682;51.660;19.338;2022-09-01T05:40:58;16.10;99.90
40952;DHT22;26682;51.660;19.338;2022-09-01T05:42:47;15.90;99.90
40952;DHT22;26682;51.660;19.338;2022-09-01T05:44:34;15.80;99.90
40952;DHT22;26682;51.660;19.338;2022-09-01T05:46:23;16.00;99.90
40952;DHT22;26682;51.660;19.338;2022-09-01T05:48:11;16.40;99.90
40952;DHT22;26682;51.660;19.338;2022-09-01T05:49:58;16.50;99.90
40952;DHT22;26682;51.660;19.338;2022-09-01T05:51:49;16.70;99.90
40952;DHT22;26682;51.660;19.338;2022-09-01T05:53:38;16.60;99.90
40952;DHT22;26682;51.660;19.338;2022-09-01T05:55:24;16.50;99.90
40952;DHT22;26682;51.660;19.338;2022-09-01T05:57:12;16.80;99.90
40952;DHT22;26682;51.660;19.338;2022-09-01T05:59:00;16.90;99.90
40952;DHT22;26682;51.660;19.338;2022-09-01T06:00:47;16.70;99.90
40952;DHT22;26682;51.660;19.338;2022-09-01T06:02:34;16.90;99.90
40952;DHT22;26682;51.660;19.338;2022-09-01T06:04:22;17.00;99.90
40952;DHT22;26682;51.660;19.338;2022-09-01T06:06:11;17.20;99.90
40952;DHT22;26682;51.660;19.338;2022-09-01T06:07:59;17.00;99.90
40952;DHT22;26682;51.660;19.338;2022-09-01T06:09:47;17.20;99.90
40952;DHT22;26682;51.660;19.338;2022-09-01T06:11:37;17.30;99.90
40952;DHT22;26682;51.660;19.338;2022-09-01T06:13:23;17.20;99.90
40952;DHT22;26682;51.660;19.338;2022-09-01T06:15:09;17.40;99.90
40952;DHT22;26682;51.660;19.338;2022-09-01T06:17:03;17.40;99.90
40952;DHT22;26682;51.660;19.338;2022-09-01T06:18:50;17.50;99.90
40952;DHT22;26682;51.660;19.338;2022-09-01T06:20:40;17.60;99.90
40952;DHT22;26682;51.660;19.338;2022-09-01T06:22:29;17.30;99.90
40952;DHT22;26682;51.660;19.338;2022-09-01T06:24:17;17.20;99.90
40952;DHT22;26682;51.660;19.338;2022-09-01T06:26:03;17.20;99.90
40952;DHT22;26682;51.660;19.338;2022-09-01T06:27:51;17.20;99.90
40952;DHT22;26682;51.660;19.338;2022-09-01T06:29:39;17.20;99.90
40952;DHT22;26682;51.660;19.338;2022-09-01T06:31:29;17.30;99.90
40952;DHT22;26682;51.660;19.338;2022-09-01T06:33:25;17.40;99.90
40952;DHT22;26682;51.660;19.338;2022-09-01T06:35:12;17.60;99.90
40952;DHT22;26682;51.660;19.338;2022-09-01T06:36:58;17.90;99.90
40952;DHT22;26682;51.660;19.338;2022-09-01T06:38:45;17.80;99.90
40952;DHT22;26682;51.660;19.338;2022-09-01T06:40:32;17.90;99.90
40952;DHT22;26682;51.660;19.338;2022-09-01T06:42:18;17.50;99.90
40952;DHT22;26682;51.660;19.338;2022-09-01T06:44:14;17.60;99.90
40952;DHT22;26682;51.660;19.338;2022-09-01T06:46:05;17.70;99.90
40952;DHT22;26682;51.660;19.338;2022-09-01T06:47:51;17.80;99.90
40952;DHT22;26682;51.660;19.338;2022-09-01T06:49:38;17.80;99.90
40952;DHT22;26682;51.660;19.338;2022-09-01T06:51:29;17.70;99.90
40952;DHT22;26682;51.660;19.338;2022-09-01T06:53:17;17.80;99.90
40952;DHT22;26682;51.660;19.338;2022-09-01T06:55:08;17.60;99.90
40952;DHT22;26682;51.660;19.338;2022-09-01T06:56:55;17.40;99.90
40952;DHT22;26682;51.660;19.338;2022-09-01T06:58:44;17.40;99.90
40952;DHT22;26682;51.660;19.338;2022-09-01T07:00:37;17.70;99.90
40952;DHT22;26682;51.660;19.338;2022-09-01T07:02:27;17.60;99.90
40952;DHT22;26682;51.660;19.338;2022-09-01T07:04:34;17.50;99.90
40952;DHT22;26682;51.660;19.338;2022-09-01T07:06:25;17.70;99.90
40952;DHT22;26682;51.660;19.338;2022-09-01T07:08:33;17.90;99.90
40952;DHT22;26682;51.660;19.338;2022-09-01T07:10:27;17.80;99.90
40952;DHT22;26682;51.660;19.338;2022-09-01T07:12:32;17.70;99.90
40952;DHT22;26682;51.660;19.338;2022-09-01T07:14:18;17.60;99.90
40952;DHT22;26682;51.660;19.338;2022-09-01T07:16:05;17.70;99.90
40952;DHT22;26682;51.660;19.338;2022-09-01T07:17:58;17.50;99.90
40952;DHT22;26682;51.660;19.338;2022-09-01T07:19:44;17.30;99.90
40952;DHT22;26682;51.660;19.338;2022-09-01T07:21:32;17.20;99.90
40952;DHT22;26682;51.660;19.338;2022-09-01T07:23:19;17.20;99.90
40952;DHT22;26682;51.660;19.338;2022-09-01T07:25:06;17.20;99.90
40952;DHT22;26682;51.660;19.338;2022-09-01T07:27:20;17.30;99.90
40952;DHT22;26682;51.660;19.338;2022-09-01T07:29:13;17.50;99.90
40952;DHT22;26682;51.660;19.338;2022-09-01T07:30:59;17.70;99.90
40952;DHT22;26682;51.660;19.338;2022-09-01T07:32:47;17.60;99.90
40952;DHT22;26682;51.660;19.338;2022-09-01T07:34:35;17.40;99.90
40952;DHT22;26682;51.660;19.338;2022-09-01T07:36:24;17.40;99.90
40952;DHT22;26682;51.660;19.338;2022-09-01T07:38:12;17.60;99.90
40952;DHT22;26682;51.660;19.338;2022-09-01T07:39:59;17.40;99.90
40952;DHT22;26682;51.660;19.338;2022-09-01T07:42:05;17.50;99.90
40952;DHT22;26682;51.660;19.338;2022-09-01T07:44:14;17.60;99.90
40952;DHT22;26682;51.660;19.338;2022-09-01T07:46:26;17.70;99.90
40952;DHT22;26682;51.660;19.338;2022-09-01T07:48:16;17.70;99.90
40952;DHT22;26682;51.660;19.338;2022-09-01T07:50:07;17.70;99.90
40952;DHT22;26682;51.660;19.338;2022-09-01T07:51:54;17.80;99.90
40952;DHT22;26682;51.660;19.338;2022-09-01T07:53:41;17.90;99.90
40952;DHT22;26682;51.660;19.338;2022-09-01T07:55:31;18.20;99.90
40952;DHT22;26682;51.660;19.338;2022-09-01T07:57:19;18.20;99.90
40952;DHT22;26682;51.660;19.338;2022-09-01T07:59:07;18.20;99.90
40952;DHT22;26682;51.660;19.338;2022-09-01T08:00:55;18.00;99.90
40952;DHT22;26682;51.660;19.338;2022-09-01T08:02:49;18.00;99.90
40952;DHT22;26682;51.660;19.338;2022-09-01T08:04:37;18.10;99.90
40952;DHT22;26682;51.660;19.338;2022-09-01T08:06:26;18.10;99.90
40952;DHT22;26682;51.660;19.338;2022-09-01T08:08:14;18.20;99.90
40952;DHT22;26682;51.660;19.338;2022-09-01T08:10:00;17.70;99.90
40952;DHT22;26682;51.660;19.338;2022-09-01T08:11:46;17.30;99.90
40952;DHT22;26682;51.660;19.338;2022-09-01T08:13:35;17.10;99.90
40952;DHT22;26682;51.660;19.338;2022-09-01T08:15:25;17.20;99.90
40952;DHT22;26682;51.660;19.338;2022-09-01T08:17:10;17.60;99.90
40952;DHT22;26682;51.660;19.338;2022-09-01T08:18:57;17.70;99.90
40952;DHT22;26682;51.660;19.338;2022-09-01T08:20:50;18.10;99.90
40952;DHT22;26682;51.660;19.338;2022-09-01T08:23:06;17.70;99.90
40952;DHT22;26682;51.660;19.338;2022-09-01T08:24:54;17.60;99.90
40952;DHT22;26682;51.660;19.338;2022-09-01T08:26:41;17.50;99.90
40952;DHT22;26682;51.660;19.338;2022-09-01T08:28:27;17.20;99.90
40952;DHT22;26682;51.660;19.338;2022-09-01T08:30:15;17.10;99.90
40952;DHT22;26682;51.660;19.338;2022-09-01T08:32:03;17.00;99.90
40952;DHT22;26682;51.660;19.338;2022-09-01T08:33:49;17.10;99.90
40952;DHT22;26682;51.660;19.338;2022-09-01T08:35:37;17.10;99.90
40952;DHT22;26682;51.660;19.338;2022-09-01T08:37:24;17.30;99.90
40952;DHT22;26682;51.660;19.338;2022-09-01T08:39:10;17.40;99.90
40952;DHT22;26682;51.660;19.338;2022-09-01T08:40:58;17.40;99.90
40952;DHT22;26682;51.660;19.338;2022-09-01T08:42:55;17.50;99.90
40952;DHT22;26682;51.660;19.338;2022-09-01T08:45:02;17.40;99.90
40952;DHT22;26682;51.660;19.338;2022-09-01T08:46:56;17.40;99.90
40952;DHT22;26682;51.660;19.338;2022-09-01T08:48:49;17.50;99.90
40952;DHT22;26682;51.660;19.338;2022-09-01T08:50:36;17.60;99.90
40952;DHT22;26682;51.660;19.338;2022-09-01T08:52:43;17.80;99.90
40952;DHT22;26682;51.660;19.338;2022-09-01T08:56:42;17.90;99.90
40952;DHT22;26682;51.660;19.338;2022-09-01T08:58:30;17.80;99.90
40952;DHT22;26682;51.660;19.338;2022-09-01T09:00:41;17.90;99.90
40952;DHT22;26682;51.660;19.338;2022-09-01T09:02:56;18.00;99.90
40952;DHT22;26682;51.660;19.338;2022-09-01T09:05:06;18.20;99.90
40952;DHT22;26682;51.660;19.338;2022-09-01T09:07:12;18.40;99.90
40952;DHT22;26682;51.660;19.338;2022-09-01T09:09:04;18.40;99.90
40952;DHT22;26682;51.660;19.338;2022-09-01T09:11:00;18.40;99.90
40952;DHT22;26682;51.660;19.338;2022-09-01T09:16:42;18.70;99.90
40952;DHT22;26682;51.660;19.338;2022-09-01T09:18:34;18.90;99.90
40952;DHT22;26682;51.660;19.338;2022-09-01T09:20:21;18.70;99.90
40952;DHT22;26682;51.660;19.338;2022-09-01T09:22:10;18.50;99.90
40952;DHT22;26682;51.660;19.338;2022-09-01T09:24:18;18.50;99.90
40952;DHT22;26682;51.660;19.338;2022-09-01T09:26:07;18.80;99.90
40952;DHT22;26682;51.660;19.338;2022-09-01T09:27:54;18.90;99.90
40952;DHT22;26682;51.660;19.338;2022-09-01T09:29:51;19.00;99.90
40952;DHT22;26682;51.660;19.338;2022-09-01T09:31:39;19.00;99.90
40952;DHT22;26682;51.660;19.338;2022-09-01T09:33:37;19.00;99.90
40952;DHT22;26682;51.660;19.338;2022-09-01T09:35:41;19.00;99.90
40952;DHT22;26682;51.660;19.338;2022-09-01T09:37:30;18.80;99.90
40952;DHT22;26682;51.660;19.338;2022-09-01T09:39:17;19.00;99.90
40952;DHT22;26682;51.660;19.338;2022-09-01T09:41:19;19.00;99.90
40952;DHT22;26682;51.660;19.338;2022-09-01T09:43:06;19.10;99.90
40952;DHT22;26682;51.660;19.338;2022-09-01T09:44:53;19.10;99.90
40952;DHT22;26682;51.660;19.338;2022-09-01T09:46:41;18.80;99.90
40952;DHT22;26682;51.660;19.338;2022-09-01T09:48:30;18.60;99.90
40952;DHT22;26682;51.660;19.338;2022-09-01T09:50:21;18.60;99.90
40952;DHT22;26682;51.660;19.338;2022-09-01T09:54:10;18.50;99.90
40952;DHT22;26682;51.660;19.338;2022-09-01T09:56:21;18.50;99.90
40952;DHT22;26682;51.660;19.338;2022-09-01T09:58:10;18.60;99.90
40952;DHT22;26682;51.660;19.338;2022-09-01T10:00:04;18.70;99.90
40952;DHT22;26682;51.660;19.338;2022-09-01T10:02:06;18.80;99.90
40952;DHT22;26682;51.660;19.338;2022-09-01T10:04:00;19.10;99.90
40952;DHT22;26682;51.660;19.338;2022-09-01T10:05:49;19.20;99.90
40952;DHT22;26682;51.660;19.338;2022-09-01T10:07:37;19.40;99.90
40952;DHT22;26682;51.660;19.338;2022-09-01T10:11:44;19.60;99.90
40952;DHT22;26682;51.660;19.338;2022-09-01T10:13:34;18.70;99.20
40952;DHT22;26682;51.660;19.338;2022-09-01T10:15:25;18.20;99.90
40952;DHT22;26682;51.660;19.338;2022-09-01T10:17:20;18.10;99.90
40952;DHT22;26682;51.660;19.338;2022-09-01T10:19:11;18.00;99.90
40952;DHT22;26682;51.660;19.338;2022-09-01T10:21:34;18.20;99.90
40952;DHT22;26682;51.660;19.338;2022-09-01T10:23:13;18.40;99.90
40952;DHT22;26682;51.660;19.338;2022-09-01T10:25:00;18.60;99.90
40952;DHT22;26682;51.660;19.338;2022-09-01T10:26:49;18.80;99.90
40952;DHT22;26682;51.660;19.338;2022-09-01T10:28:45;19.00;99.20
40952;DHT22;26682;51.660;19.338;2022-09-01T10:30:33;19.00;98.30
40952;DHT22;26682;51.660;19.338;2022-09-01T10:32:38;19.20;98.50
40952;DHT22;26682;51.660;19.338;2022-09-01T10:34:26;19.40;98.40
40952;DHT22;26682;51.660;19.338;2022-09-01T10:36:15;19.60;96.50
40952;DHT22;26682;51.660;19.338;2022-09-01T10:38:04;19.40;98.50
40952;DHT22;26682;51.660;19.338;2022-09-01T10:40:11;19.30;99.10
40952;DHT22;26682;51.660;19.338;2022-09-01T10:41:59;19.20;99.50
40952;DHT22;26682;51.660;19.338;2022-09-01T10:43:52;19.10;99.70
40952;DHT22;26682;51.660;19.338;2022-09-01T10:45:38;19.00;99.80
40952;DHT22;26682;51.660;19.338;2022-09-01T10:47:31;18.60;99.80
40952;DHT22;26682;51.660;19.338;2022-09-01T10:53:04;18.00;99.60
40952;DHT22;26682;51.660;19.338;2022-09-01T10:54:56;17.80;99.60
40952;DHT22;26682;51.660;19.338;2022-09-01T10:56:47;17.70;98.70
40952;DHT22;26682;51.660;19.338;2022-09-01T10:58:45;17.70;98.60
40952;DHT22;26682;51.660;19.338;2022-09-01T11:02:20;18.20;99.30
40952;DHT22;26682;51.660;19.338;2022-09-01T11:04:11;18.50;98.00
40952;DHT22;26682;51.660;19.338;2022-09-01T11:06:06;18.80;97.00
40952;DHT22;26682;51.660;19.338;2022-09-01T11:07:53;19.10;96.10
40952;DHT22;26682;51.660;19.338;2022-09-01T11:09:40;19.30;95.00
40952;DHT22;26682;51.660;19.338;2022-09-01T11:11:50;19.60;93.20
40952;DHT22;26682;51.660;19.338;2022-09-01T11:13:47;19.70;92.20
40952;DHT22;26682;51.660;19.338;2022-09-01T11:15:40;19.60;93.00
40952;DHT22;26682;51.660;19.338;2022-09-01T11:18:04;19.80;92.60
40952;DHT22;26682;51.660;19.338;2022-09-01T11:19:45;19.70;92.30
40952;DHT22;26682;51.660;19.338;2022-09-01T11:21:33;19.80;93.00
40952;DHT22;26682;51.660;19.338;2022-09-01T11:23:22;19.60;93.90
40952;DHT22;26682;51.660;19.338;2022-09-01T11:26:55;19.60;95.90
40952;DHT22;26682;51.660;19.338;2022-09-01T11:28:41;19.60;95.80
40952;DHT22;26682;51.660;19.338;2022-09-01T11:32:17;19.40;95.60
40952;DHT22;26682;51.660;19.338;2022-09-01T11:34:20;19.10;95.60
40952;DHT22;26682;51.660;19.338;2022-09-01T11:36:22;18.90;96.50
40952;DHT22;26682;51.660;19.338;2022-09-01T11:38:13;18.80;97.80
40952;DHT22;26682;51.660;19.338;2022-09-01T11:40:02;18.90;98.20
40952;DHT22;26682;51.660;19.338;2022-09-01T11:43:38;18.80;97.50
40952;DHT22;26682;51.660;19.338;2022-09-01T11:45:29;18.90;97.80
40952;DHT22;26682;51.660;19.338;2022-09-01T11:47:31;18.90;97.70
40952;DHT22;26682;51.660;19.338;2022-09-01T11:49:30;19.00;97.00